< < Back
Terminal Aerodrome Forecast


Current Version              Previous Versions:   1  2  3  4  5  6  7  8  9  

Terminal Aerodrome Forecast

549
FTUS42 KILM 290500
TAFFLO
TAF
KFLO 290529Z 2906/3006 VRB03KT P6SM SKC
     FM291400 17006KT P6SM SCT250
     FM291900 20012G18KT P6SM SCT250
     FM300000 21006KT P6SM OVC100=



Latest METAR

771
SAUS70 KWBC 291400 RRB
MTRFLO
METAR KFLO 291353Z 00000KT 7SM CLR 01/M02 A3037 RMK AO2 SLP285
T00111022


USA.gov is the U.S. government's official web portal to all federal, state and local government web resources and services.